Time;durP1;ratioP1;P1;durP2;ratioP2;P2;SDS_P1;SDS_P2;PMS_P1;PMS_P2;Temp;Humidity;BMP_temperature;BMP_pressure;BME280_temperature;BME280_humidity;BME280_pressure;Samples;Min_cycle;Max_cycle;Signal;HPM_P1;HPM_P2
2022/01/16 00:05:33;;;;;;;52.90;9.25;;;;;;;0.54;86.89;100219.78;8301961;28;20050;-73
2022/01/16 00:09:35;;;;;;;41.30;9.18;;;;;;;0.50;88.10;100207.16;8301884;28;20050;-73
2022/01/16 00:13:36;;;;;;;34.17;8.93;;;;;;;0.53;87.96;100190.78;8301439;28;20491;-73
2022/01/16 00:17:48;;;;;;;43.70;11.25;;;;;;;0.51;86.98;100183.03;8300739;28;20061;-73
2022/01/16 00:21:49;;;;;;;35.83;9.18;;;;;;;0.41;87.48;100204.78;8266579;28;20042;-74
2022/01/16 00:25:52;;;;;;;46.10;9.20;;;;;;;0.33;87.84;100201.53;8301401;28;20050;-74
2022/01/16 00:29:52;;;;;;;48.72;10.35;;;;;;;0.27;88.59;100194.44;8300715;28;20080;-74
2022/01/16 00:33:53;;;;;;;39.85;9.45;;;;;;;0.19;88.76;100150.34;8300994;28;20139;-73
2022/01/16 00:37:54;;;;;;;40.85;9.98;;;;;;;0.04;89.44;100149.84;8300513;28;20188;-73
2022/01/16 00:41:55;;;;;;;38.67;9.93;;;;;;;-0.09;89.95;100149.94;8300480;28;20057;-75
2022/01/16 00:45:56;;;;;;;37.70;9.13;;;;;;;-0.20;90.25;100177.16;8300244;28;20066;-73
2022/01/16 00:49:57;;;;;;;39.75;11.05;;;;;;;-0.28;90.81;100188.84;8300333;28;20057;-74
2022/01/16 00:53:58;;;;;;;29.75;10.13;;;;;;;-0.39;91.05;100196.66;8298257;28;20435;-74
2022/01/16 00:57:59;;;;;;;42.90;10.60;;;;;;;-0.49;90.91;100163.44;8299945;28;20049;-74
2022/01/16 01:02:00;;;;;;;40.40;11.60;;;;;;;-0.52;91.43;100155.88;8299952;28;20397;-74
2022/01/16 01:06:02;;;;;;;42.25;11.82;;;;;;;-0.52;91.48;100177.09;8299795;28;20058;-74
2022/01/16 01:10:03;;;;;;;43.70;13.18;;;;;;;-0.54;91.95;100168.56;8297031;28;20038;-74
2022/01/16 01:14:15;;;;;;;52.75;12.73;;;;;;;-0.51;91.83;100173.44;8298788;28;20057;-74
2022/01/16 01:18:17;;;;;;;44.33;13.00;;;;;;;-0.53;91.88;100151.59;8297218;28;20080;-73
2022/01/16 01:22:18;;;;;;;64.20;19.77;;;;;;;-0.67;92.64;100173.91;8295555;28;20046;-73
2022/01/16 01:26:24;;;;;;;112.63;36.13;;;;;;;-0.75;93.73;100171.50;8295451;28;20073;-72
2022/01/16 01:30:25;;;;;;;155.48;49.55;;;;;;;-0.74;93.28;100189.00;8294127;28;20096;-73
2022/01/16 01:34:25;;;;;;;192.27;56.10;;;;;;;-0.74;93.58;100183.72;8296882;28;20050;-73
2022/01/16 01:38:26;;;;;;;168.07;53.42;;;;;;;-0.76;93.77;100169.84;8295730;28;20042;-74
2022/01/16 01:42:33;;;;;;;154.85;51.40;;;;;;;-0.77;93.51;100040.91;8296641;28;20057;-74
2022/01/16 01:51:03;;;;;;;;;;;;;;;-0.80;93.65;100035.22;8296285;28;20041;-73
2022/01/16 01:55:04;;;;;;;160.63;51.72;;;;;;;-0.77;93.56;100096.59;8295689;28;19922;-74
2022/01/16 01:59:07;;;;;;;165.95;54.38;;;;;;;-0.75;93.73;100102.53;8296098;28;20509;-74
2022/01/16 02:07:35;;;;;;;162.52;49.13;;;;;;;-0.79;93.57;100096.00;8227301;28;20138;-74
2022/01/16 02:11:36;;;;;;;149.18;50.60;;;;;;;-0.87;93.58;100109.50;8193761;28;20051;-74
2022/01/16 02:37:00;;;;;;;153.13;49.47;;;;;;;-1.25;94.21;100105.94;8225324;28;20495;-74
2022/01/16 02:41:04;;;;;;;162.95;48.40;;;;;;;-1.33;94.21;100097.22;8221699;28;20130;-74
2022/01/16 02:45:06;;;;;;;159.50;47.72;;;;;;;-1.39;94.33;100095.38;8223780;28;20206;-73
2022/01/16 02:49:28;;;;;;;143.23;46.45;;;;;;;-1.45;94.50;100085.63;8222525;28;20558;-73
2022/01/16 02:53:29;;;;;;;134.80;46.33;;;;;;;-1.51;94.75;100070.53;8223146;28;20422;-73
2022/01/16 02:57:29;;;;;;;136.77;46.25;;;;;;;-1.57;94.88;100071.38;8221396;28;20141;-74
2022/01/16 03:01:31;;;;;;;131.85;44.88;;;;;;;-1.59;94.67;100068.13;8223624;28;20422;-73
2022/01/16 03:05:33;;;;;;;144.45;45.90;;;;;;;-1.62;94.64;100073.81;8190708;28;20085;-73
2022/01/16 03:13:48;;;;;;;157.20;46.35;;;;;;;-1.68;94.82;100048.16;8267593;28;20058;-73
2022/01/16 03:22:03;;;;;;;159.77;48.42;;;;;;;-1.73;94.86;100029.41;8298733;28;20046;-73
2022/01/16 03:26:03;;;;;;;132.93;44.05;;;;;;;-1.75;95.09;100020.88;8300183;28;20050;-73
2022/01/16 03:30:05;;;;;;;133.77;45.72;;;;;;;-1.76;94.97;100012.13;8299428;28;20446;-72
2022/01/16 03:34:06;;;;;;;149.95;46.22;;;;;;;-1.76;94.62;100011.31;8300312;28;20572;-73
2022/01/16 03:38:07;;;;;;;149.27;48.53;;;;;;;-1.78;94.71;100010.69;8300103;28;20042;-73
2022/01/16 03:42:08;;;;;;;154.90;50.20;;;;;;;-1.77;94.92;100013.13;8300047;28;20040;-73
2022/01/16 03:46:09;;;;;;;151.40;49.47;;;;;;;-1.76;94.58;99987.47;8299601;28;20507;-73
2022/01/16 03:50:10;;;;;;;154.02;48.05;;;;;;;-1.80;95.50;99980.97;8298454;28;20060;-73
2022/01/16 03:54:13;;;;;;;146.88;48.75;;;;;;;-1.80;94.93;99975.69;8299112;28;20057;-73
2022/01/16 03:58:15;;;;;;;135.68;46.88;;;;;;;-1.80;95.17;99954.50;8286787;28;20042;-73
2022/01/16 04:02:15;;;;;;;138.55;43.13;;;;;;;-1.82;95.31;99961.81;8298967;28;20677;-73
2022/01/16 04:06:17;;;;;;;124.15;44.03;;;;;;;-1.85;95.42;99967.53;8301016;28;20046;-73
2022/01/16 04:10:20;;;;;;;135.00;41.95;;;;;;;-1.94;95.27;99963.47;8267602;28;20050;-73
2022/01/16 04:15:31;;;;;;;133.35;42.38;;;;;;;-1.98;95.89;99952.50;8300245;28;20050;-73
2022/01/16 04:18:42;;;;;;;131.07;43.17;;;;;;;-2.01;95.88;99946.81;8299754;28;20053;-73
2022/01/16 04:22:45;;;;;;;127.50;43.72;;;;;;;-2.04;95.74;99936.63;8300115;28;20502;-73
2022/01/16 04:26:45;;;;;;;131.07;42.92;;;;;;;-2.02;95.57;99934.59;8298481;28;20054;-72
2022/01/16 04:30:46;;;;;;;136.18;46.75;;;;;;;-2.01;95.56;99941.50;8300058;28;20104;-73
2022/01/16 04:34:47;;;;;;;126.78;41.75;;;;;;;-2.01;95.32;99926.41;8300036;28;20133;-73
2022/01/16 04:38:50;;;;;;;120.97;41.90;;;;;;;-2.02;95.44;99924.00;8299453;28;20137;-72
2022/01/16 04:47:10;;;;;;;115.47;42.05;;;;;;;-2.09;95.17;99917.91;8299397;28;20073;-73
2022/01/16 04:51:11;;;;;;;118.10;40.10;;;;;;;-2.16;95.09;99897.53;8299013;28;20499;-73
2022/01/16 04:55:13;;;;;;;117.25;40.55;;;;;;;-2.22;95.01;99890.44;8299309;28;20052;-73
2022/01/16 04:59:13;;;;;;;126.72;42.50;;;;;;;-2.21;95.11;99884.13;8298754;28;20046;-73
2022/01/16 05:03:14;;;;;;;128.85;43.40;;;;;;;-2.25;95.01;99882.09;8298474;28;20050;-72
2022/01/16 05:07:15;;;;;;;126.93;43.55;;;;;;;-2.26;95.11;99870.69;8298499;28;20157;-73
2022/01/16 05:11:21;;;;;;;133.40;44.83;;;;;;;-2.28;94.75;99856.88;8298243;28;20481;-73
2022/01/16 05:19:41;;;;;;;140.35;42.08;;;;;;;-2.44;95.64;99852.03;8289107;28;20057;-73
2022/01/16 05:23:42;;;;;;;141.23;41.50;;;;;;;-2.59;97.18;99843.53;8297510;28;20125;-73
2022/01/16 05:27:43;;;;;;;130.23;40.00;;;;;;;-2.63;98.13;99831.69;8297436;28;20151;-73
2022/01/16 05:31:44;;;;;;;129.57;41.08;;;;;;;-2.65;98.13;99828.47;8298027;28;20490;-73
2022/01/16 05:35:46;;;;;;;125.90;38.70;;;;;;;-2.72;98.74;99825.00;8297374;28;20049;-73
2022/01/16 05:39:48;;;;;;;124.18;37.35;;;;;;;-2.83;99.32;99825.63;8298091;28;20527;-73
2022/01/16 05:43:49;;;;;;;127.88;41.83;;;;;;;-2.78;99.32;99804.69;8297266;28;20416;-73
2022/01/16 05:47:50;;;;;;;128.35;39.20;;;;;;;-2.75;99.44;99807.72;8269580;28;20054;-73
2022/01/16 05:51:51;;;;;;;143.13;39.67;;;;;;;-2.77;98.73;99798.38;8297035;28;20108;-73
2022/01/16 05:55:52;;;;;;;115.63;37.00;;;;;;;-2.84;99.10;99800.22;8262141;28;20061;-73
2022/01/16 05:59:54;;;;;;;113.57;36.03;;;;;;;-2.95;99.16;99800.81;8296637;28;20506;-73
2022/01/16 06:03:54;;;;;;;106.03;34.13;;;;;;;-2.95;99.01;99796.34;8295983;28;20085;-73
2022/01/16 06:08:01;;;;;;;113.25;34.85;;;;;;;-3.03;98.99;99789.47;8262150;28;20058;-73
2022/01/16 06:12:01;;;;;;;111.10;35.22;;;;;;;-3.05;98.89;99780.91;8295617;28;20054;-73
2022/01/16 06:16:03;;;;;;;140.80;38.03;;;;;;;-3.01;99.30;99787.41;8296003;28;20061;-73
2022/01/16 06:20:05;;;;;;;132.70;39.03;;;;;;;-3.06;99.53;99768.72;8296742;28;20092;-73
2022/01/16 06:24:06;;;;;;;122.63;38.08;;;;;;;-3.01;99.55;99763.63;8291483;28;20509;-73
2022/01/16 06:28:07;;;;;;;134.88;40.35;;;;;;;-3.00;99.95;99757.34;8291216;28;20049;-72
2022/01/16 06:32:08;;;;;;;114.45;37.05;;;;;;;-2.96;99.97;99756.94;8291706;28;20077;-73
2022/01/16 06:36:08;;;;;;;125.20;35.35;;;;;;;-3.02;100.00;99751.47;8291722;28;20203;-73
2022/01/16 06:40:11;;;;;;;121.03;37.20;;;;;;;-3.04;100.00;99750.84;8291603;28;20049;-74
2022/01/16 06:44:11;;;;;;;118.72;38.72;;;;;;;-3.13;100.00;99744.16;8284830;28;20125;-73
2022/01/16 06:48:12;;;;;;;127.43;35.38;;;;;;;-3.12;100.00;99732.53;8258261;28;20544;-73
2022/01/16 06:52:13;;;;;;;106.78;32.22;;;;;;;-3.14;100.00;99734.59;8291567;28;20144;-73
2022/01/16 06:56:17;;;;;;;102.32;31.40;;;;;;;-3.12;100.00;99740.47;8276037;28;20489;-72
2022/01/16 07:00:17;;;;;;;108.22;34.13;;;;;;;-3.04;100.00;99745.56;8293769;28;20140;-73
2022/01/16 07:04:18;;;;;;;122.53;36.45;;;;;;;-2.99;100.00;99737.81;8295008;28;20053;-72
2022/01/16 07:08:22;;;;;;;112.97;34.63;;;;;;;-3.01;100.00;99739.84;8296099;28;20486;-72
2022/01/16 07:12:27;;;;;;;112.22;33.80;;;;;;;-3.01;100.00;99739.84;8295633;28;20050;-72
2022/01/16 07:16:28;;;;;;;134.20;33.25;;;;;;;-3.02;100.00;99732.97;8295774;28;20045;-73
2022/01/16 07:20:29;;;;;;;123.50;34.05;;;;;;;-2.95;100.00;99732.09;8295829;28;20042;-72
2022/01/16 07:24:30;;;;;;;119.03;31.75;;;;;;;-2.99;100.00;99732.53;8295773;28;20137;-72
2022/01/16 07:28:31;;;;;;;102.80;32.42;;;;;;;-2.93;100.00;99740.66;8295988;28;20052;-72
2022/01/16 07:32:31;;;;;;;100.47;31.35;;;;;;;-2.85;100.00;99748.34;8301557;28;20048;-72
2022/01/16 07:36:33;;;;;;;105.28;30.35;;;;;;;-2.94;100.00;99747.78;8324355;28;20056;-73
2022/01/16 07:40:34;;;;;;;102.18;31.42;;;;;;;-2.89;100.00;99741.88;8299910;28;20120;-72
2022/01/16 07:44:35;;;;;;;93.80;31.77;;;;;;;-2.77;100.00;99734.94;8295437;28;20049;-72
2022/01/16 07:48:36;;;;;;;86.70;31.15;;;;;;;-2.74;99.61;99729.22;8294561;28;20417;-72
2022/01/16 07:52:37;;;;;;;94.20;31.40;;;;;;;-2.84;99.49;99734.13;8322697;28;20069;-72
2022/01/16 07:56:38;;;;;;;93.88;31.73;;;;;;;-2.84;99.59;99720.91;8328240;28;20049;-73
2022/01/16 08:00:39;;;;;;;93.32;29.92;;;;;;;-2.81;99.55;99736.38;8327919;28;20057;-73
2022/01/16 08:04:39;;;;;;;90.47;32.58;;;;;;;-2.75;99.35;99732.91;8333183;28;20057;-73
2022/01/16 08:08:40;;;;;;;97.20;32.45;;;;;;;-2.68;98.69;99723.09;8333636;28;20044;-74
2022/01/16 08:12:41;;;;;;;101.63;31.70;;;;;;;-2.60;98.88;99709.69;8301774;28;20524;-73
2022/01/16 08:16:42;;;;;;;94.25;31.35;;;;;;;-2.70;98.45;99698.72;8300656;28;20042;-73
2022/01/16 08:20:43;;;;;;;96.38;33.83;;;;;;;-2.70;98.99;99693.44;8300586;28;20049;-73
2022/01/16 08:24:44;;;;;;;100.95;34.63;;;;;;;-2.51;99.19;99697.84;8282736;28;20466;-74
2022/01/16 08:28:44;;;;;;;84.15;30.13;;;;;;;-2.47;98.98;99699.03;8298021;28;20172;-73
2022/01/16 08:32:46;;;;;;;116.10;36.60;;;;;;;-2.47;99.16;99704.31;8298382;28;20523;-73
2022/01/16 08:36:47;;;;;;;137.82;46.92;;;;;;;-2.36;99.38;99706.31;8299781;28;20129;-73
2022/01/16 08:40:48;;;;;;;108.80;38.33;;;;;;;-2.32;99.02;99702.22;8300329;28;20077;-74
2022/01/16 08:44:49;;;;;;;122.97;42.42;;;;;;;-2.31;98.76;99690.63;8298872;28;20056;-73
2022/01/16 08:48:52;;;;;;;126.45;47.75;;;;;;;-2.43;98.90;99689.66;8298421;28;20418;-72
2022/01/16 08:52:52;;;;;;;127.47;45.17;;;;;;;-2.31;98.81;99669.47;8293862;28;20049;-72
2022/01/16 08:56:53;;;;;;;118.32;43.80;;;;;;;-2.29;99.07;99659.47;8296929;28;20060;-72
2022/01/16 09:00:54;;;;;;;98.85;34.88;;;;;;;-2.11;98.90;99650.03;8295092;28;20055;-72
2022/01/16 09:04:55;;;;;;;102.38;33.47;;;;;;;-2.08;98.64;99634.53;8295733;28;20141;-73
2022/01/16 09:08:56;;;;;;;116.10;34.38;;;;;;;-2.05;98.43;99638.56;8296076;28;20054;-78
2022/01/16 09:12:58;;;;;;;113.88;37.28;;;;;;;-1.98;98.42;99644.63;8296285;28;20046;-72
2022/01/16 09:16:58;;;;;;;125.03;39.40;;;;;;;-1.81;98.43;99643.09;8296291;28;20464;-72
2022/01/16 09:21:01;;;;;;;113.57;40.42;;;;;;;-1.64;97.74;99646.84;8296667;28;20046;-71
2022/01/16 09:25:06;;;;;;;116.93;39.17;;;;;;;-1.60;97.83;99647.19;8298898;28;20069;-73
2022/01/16 09:29:07;;;;;;;117.05;37.30;;;;;;;-1.54;97.81;99636.56;8297390;28;20137;-73
2022/01/16 09:33:08;;;;;;;118.72;38.72;;;;;;;-1.32;97.24;99651.00;8299073;28;20460;-72
2022/01/16 09:37:09;;;;;;;104.82;37.30;;;;;;;-1.36;96.64;99654.31;8297841;28;20066;-72
2022/01/16 09:41:11;;;;;;;126.47;41.72;;;;;;;-1.20;96.66;99647.63;8298006;28;20041;-72
2022/01/16 09:45:16;;;;;;;122.70;38.72;;;;;;;-1.35;96.68;99656.75;8295207;28;20468;-72
2022/01/16 09:49:18;;;;;;;129.13;41.53;;;;;;;-1.22;96.49;99665.63;8297247;28;20050;-72
2022/01/16 09:53:23;;;;;;;128.95;42.08;;;;;;;-1.03;96.06;99664.59;8297526;28;20061;-72
2022/01/16 09:57:24;;;;;;;131.77;41.05;;;;;;;-1.05;96.10;99656.03;8296706;28;20184;-72
2022/01/16 10:01:25;;;;;;;121.43;39.63;;;;;;;-0.94;96.42;99644.72;8297212;28;20049;-72
2022/01/16 10:05:32;;;;;;;137.77;43.80;;;;;;;-0.79;96.33;99645.13;8296240;28;20053;-73
2022/01/16 10:09:37;;;;;;;142.05;46.47;;;;;;;-0.71;96.07;99636.91;8296007;28;20048;-73
2022/01/16 10:13:56;;;;;;;134.65;42.40;;;;;;;-0.58;95.99;99631.41;8297278;28;20501;-73
2022/01/16 10:17:59;;;;;;;124.10;43.45;;;;;;;-0.62;96.11;99619.63;8296337;28;20046;-72
2022/01/16 10:22:08;;;;;;;131.38;45.78;;;;;;;-0.60;96.20;99625.53;8296566;28;20046;-73
2022/01/16 10:26:23;;;;;;;135.57;43.38;;;;;;;-0.51;96.34;99604.81;8277140;28;20537;-72
2022/01/16 10:30:38;;;;;;;129.50;42.13;;;;;;;-0.45;96.58;99604.72;8295554;28;20045;-73
2022/01/16 10:34:40;;;;;;;118.70;41.65;;;;;;;-0.26;96.36;99607.31;8295997;28;20144;-72
2022/01/16 10:38:42;;;;;;;123.82;42.55;;;;;;;-0.17;96.15;99600.66;8296059;28;20054;-73
2022/01/16 10:42:54;;;;;;;137.73;42.55;;;;;;;0.02;95.72;99588.94;8295383;28;20061;-73
2022/01/16 10:46:55;;;;;;;122.85;40.67;;;;;;;0.11;95.01;99576.13;8296115;28;20061;-74
2022/01/16 10:50:56;;;;;;;128.75;42.00;;;;;;;0.16;94.46;99557.66;8294290;28;20455;-72
2022/01/16 10:55:08;;;;;;;134.15;44.15;;;;;;;0.25;94.16;99551.78;8295436;28;20063;-73
2022/01/16 10:59:24;;;;;;;122.85;40.80;;;;;;;0.33;93.47;99548.75;8295177;28;20046;-72
2022/01/16 11:03:26;;;;;;;109.65;39.42;;;;;;;0.38;93.54;99543.56;8294870;28;20096;-72
2022/01/16 11:07:27;;;;;;;116.65;37.35;;;;;;;0.65;92.87;99545.72;8295532;28;20104;-72
2022/01/16 11:11:27;;;;;;;110.53;38.33;;;;;;;0.86;92.20;99547.78;8295444;28;20048;-73
2022/01/16 11:15:30;;;;;;;108.60;40.20;;;;;;;1.13;91.57;99538.22;8295955;28;20050;-73
2022/01/16 11:19:35;;;;;;;120.60;41.70;;;;;;;1.10;91.08;99533.38;8295411;28;20058;-72
2022/01/16 11:27:46;;;;;;;109.22;38.70;;;;;;;1.07;91.08;99531.19;8295559;28;20425;-72
2022/01/16 11:31:49;;;;;;;108.88;39.33;;;;;;;0.91;91.22;99529.25;8295509;28;20095;-72
2022/01/16 11:36:00;;;;;;;118.57;38.78;;;;;;;0.99;90.69;99531.56;8294531;28;20093;-72
2022/01/16 11:40:25;;;;;;;105.60;37.47;;;;;;;1.03;90.37;99532.72;8331761;28;20132;-73
2022/01/16 11:44:30;;;;;;;110.22;37.53;;;;;;;0.94;90.12;99526.16;8251332;28;20192;-73
2022/01/16 11:48:41;;;;;;;112.82;40.78;;;;;;;0.80;90.77;99511.50;8266033;28;20577;-72
2022/01/16 11:52:43;;;;;;;103.95;35.75;;;;;;;0.87;91.39;99511.38;8300991;28;20060;-73
2022/01/16 11:56:44;;;;;;;111.25;38.22;;;;;;;0.99;91.09;99510.28;8300946;28;20453;-73
2022/01/16 12:00:45;;;;;;;113.20;39.08;;;;;;;1.00;90.74;99509.25;8300850;28;20137;-72
2022/01/16 12:04:48;;;;;;;107.22;40.10;;;;;;;1.16;90.66;99505.81;8300737;28;20125;-73
2022/01/16 12:08:56;;;;;;;119.10;42.35;;;;;;;1.26;90.48;99495.38;8300549;28;20502;-72
2022/01/16 12:12:57;;;;;;;120.03;42.45;;;;;;;1.44;89.99;99488.22;8300615;28;20513;-72
2022/01/16 12:16:59;;;;;;;113.40;40.15;;;;;;;1.49;89.43;99477.66;8331567;28;20049;-73
2022/01/16 12:21:00;;;;;;;108.05;40.67;;;;;;;1.44;89.20;99480.25;8281464;28;20057;-72
2022/01/16 12:25:04;;;;;;;110.82;40.85;;;;;;;1.59;89.55;99472.50;8298557;28;20042;-72
2022/01/16 12:29:05;;;;;;;113.45;40.35;;;;;;;1.59;89.01;99461.84;8299456;28;20509;-73
2022/01/16 12:33:42;;;;;;;107.60;39.15;;;;;;;1.63;88.46;99463.00;8299866;28;20165;-72
2022/01/16 12:37:44;;;;;;;118.70;41.50;;;;;;;1.67;88.55;99458.81;8199045;29;20051;-73
2022/01/16 12:41:46;;;;;;;105.30;40.08;;;;;;;1.72;88.43;99458.88;8135868;28;20071;-73
2022/01/16 12:45:47;;;;;;;114.38;41.38;;;;;;;1.61;88.23;99449.13;8198726;29;20505;-73
2022/01/16 12:49:48;;;;;;;118.75;41.33;;;;;;;1.58;88.46;99444.28;8197855;28;20043;-73
2022/01/16 12:53:53;;;;;;;115.50;40.30;;;;;;;1.53;88.98;99446.88;8169482;28;20051;-72
2022/01/16 12:57:54;;;;;;;116.95;42.83;;;;;;;1.53;89.23;99441.56;8214371;28;20077;-72
2022/01/16 13:02:01;;;;;;;117.28;40.72;;;;;;;1.57;89.30;99437.34;8198291;29;20502;-73
2022/01/16 13:06:23;;;;;;;130.57;43.53;;;;;;;1.64;89.06;99440.63;8195527;29;20139;-73
2022/01/16 13:10:24;;;;;;;118.40;39.67;;;;;;;1.70;88.85;99426.38;8197069;28;20062;-73
2022/01/16 13:14:27;;;;;;;114.65;42.10;;;;;;;1.77;87.88;99427.00;8263255;28;20053;-72
2022/01/16 13:18:28;;;;;;;123.95;42.55;;;;;;;1.75;88.17;99418.44;8298457;28;20119;-73
2022/01/16 13:22:32;;;;;;;128.20;44.92;;;;;;;1.75;88.50;99407.00;8297861;28;20045;-73
2022/01/16 13:26:34;;;;;;;138.77;45.00;;;;;;;1.78;88.55;99407.34;8295466;28;20049;-74
2022/01/16 13:30:35;;;;;;;130.88;43.88;;;;;;;1.67;88.29;99405.56;8297380;28;20046;-73
2022/01/16 13:34:42;;;;;;;130.95;47.45;;;;;;;1.62;88.80;99397.50;8297301;28;20144;-73
2022/01/16 13:38:46;;;;;;;124.63;45.97;;;;;;;1.63;88.88;99405.25;8295064;28;20781;-72
2022/01/16 13:46:58;;;;;;;129.05;45.38;;;;;;;1.64;88.30;99390.06;8296951;28;20099;-73
2022/01/16 13:51:05;;;;;;;130.65;46.70;;;;;;;1.64;88.49;99395.38;8296760;28;20050;-73
2022/01/16 13:55:08;;;;;;;131.23;45.70;;;;;;;1.68;88.89;99401.84;8298298;28;20056;-74
2022/01/16 13:59:13;;;;;;;134.63;45.50;;;;;;;1.69;88.66;99398.16;8297958;28;20041;-73
2022/01/16 14:03:17;;;;;;;123.00;46.28;;;;;;;1.65;88.84;99389.81;8298894;28;20062;-73
2022/01/16 14:07:22;;;;;;;124.68;42.85;;;;;;;1.64;88.37;99401.53;8295653;28;20406;-73
2022/01/16 14:11:24;;;;;;;114.82;43.78;;;;;;;1.64;87.80;99395.38;8296195;28;20077;-72
2022/01/16 14:15:25;;;;;;;97.97;35.92;;;;;;;1.62;87.02;99402.81;8294773;28;20058;-73
2022/01/16 14:19:38;;;;;;;114.90;39.17;;;;;;;1.69;84.85;99398.16;8295653;28;20046;-73
2022/01/16 14:23:40;;;;;;;110.03;38.65;;;;;;;1.61;84.76;99401.22;8261098;28;20111;-73
2022/01/16 14:27:40;;;;;;;116.40;40.05;;;;;;;1.60;84.51;99394.25;8260521;28;20145;-74
2022/01/16 14:31:43;;;;;;;114.22;39.30;;;;;;;1.52;84.58;99408.00;8295126;28;20061;-73
2022/01/16 14:35:43;;;;;;;102.80;36.45;;;;;;;1.50;83.62;99410.09;8295666;28;20497;-72
2022/01/16 14:39:46;;;;;;;109.15;36.67;;;;;;;1.55;82.59;99426.13;8277653;28;20086;-73
2022/01/16 14:43:57;;;;;;;102.95;34.10;;;;;;;1.57;81.97;99426.72;8278570;28;20046;-73
2022/01/16 14:47:58;;;;;;;106.85;36.03;;;;;;;1.64;81.45;99427.31;8294599;28;20046;-73
2022/01/16 14:51:59;;;;;;;107.60;36.85;;;;;;;1.68;81.24;99428.47;8295915;28;20053;-74
2022/01/16 14:56:00;;;;;;;90.88;33.10;;;;;;;1.74;80.70;99426.69;8294238;28;20046;-73
2022/01/16 15:00:02;;;;;;;89.13;30.73;;;;;;;1.76;80.57;99430.72;8294781;28;20045;-73
2022/01/16 15:04:04;;;;;;;88.10;31.02;;;;;;;1.84;80.16;99438.31;8294089;28;20142;-72
2022/01/16 15:08:05;;;;;;;78.28;29.45;;;;;;;1.90;79.88;99442.66;8295469;28;20563;-72
2022/01/16 15:12:06;;;;;;;61.58;22.58;;;;;;;1.97;79.25;99440.63;8298209;28;20105;-71
2022/01/16 15:16:10;;;;;;;66.72;23.33;;;;;;;2.00;79.96;99436.69;8299979;28;20054;-71
2022/01/16 15:20:18;;;;;;;53.20;19.85;;;;;;;2.08;79.61;99444.25;8301885;28;20042;-72
2022/01/16 15:24:20;;;;;;;56.23;20.23;;;;;;;2.21;79.19;99448.44;8298705;28;20057;-72
2022/01/16 15:28:21;;;;;;;57.28;20.30;;;;;;;2.28;78.81;99457.03;8300778;28;20115;-71
2022/01/16 15:32:22;;;;;;;73.10;24.33;;;;;;;2.19;79.68;99450.53;8266351;28;20051;-72
2022/01/16 15:36:23;;;;;;;55.30;21.20;;;;;;;2.16;80.16;99456.34;8278761;28;20053;-71
2022/01/16 15:40:24;;;;;;;50.42;20.83;;;;;;;2.17;80.27;99457.97;8299026;28;20042;-72
2022/01/16 15:44:25;;;;;;;52.10;20.20;;;;;;;2.26;80.04;99464.47;8299387;28;20513;-72
2022/01/16 15:48:26;;;;;;;42.58;17.65;;;;;;;2.29;80.47;99477.31;8278966;28;20128;-72
2022/01/16 15:52:28;;;;;;;33.08;13.60;;;;;;;2.29;80.91;99471.97;8293306;28;20096;-72
2022/01/16 15:56:28;;;;;;;36.45;15.38;;;;;;;2.27;81.30;99468.78;8300041;28;20057;-71
2022/01/16 16:00:29;;;;;;;37.67;15.48;;;;;;;2.25;81.74;99482.31;8301292;28;20092;-72
2022/01/16 16:04:30;;;;;;;35.08;14.88;;;;;;;2.26;81.62;99483.13;8300859;28;20494;-73
2022/01/16 16:08:31;;;;;;;41.80;15.95;;;;;;;2.28;81.37;99486.34;8301059;28;20081;-72
2022/01/16 16:12:32;;;;;;;39.17;17.05;;;;;;;2.34;81.16;99485.38;8284110;28;20474;-72
2022/01/16 16:16:33;;;;;;;44.33;16.92;;;;;;;2.34;81.10;99496.03;8295699;28;20072;-72
2022/01/16 16:20:38;;;;;;;44.97;16.52;;;;;;;2.25;81.55;99492.19;8282143;28;20164;-72
2022/01/16 16:24:41;;;;;;;37.45;16.23;;;;;;;2.23;82.26;99504.94;8299629;28;20125;-72
2022/01/16 16:28:42;;;;;;;41.53;16.27;;;;;;;2.28;81.92;99507.66;8299489;28;20073;-71
2022/01/16 16:32:43;;;;;;;39.97;15.27;;;;;;;2.17;82.69;99495.28;8300680;28;20049;-72
2022/01/16 16:36:44;;;;;;;31.05;15.32;;;;;;;2.24;82.72;99522.53;8300289;28;20121;-72
2022/01/16 16:40:45;;;;;;;29.60;13.10;;;;;;;2.12;83.79;99509.28;8300117;28;20048;-72
2022/01/16 16:44:47;;;;;;;30.63;12.70;;;;;;;2.13;84.44;99522.38;8300396;28;20054;-72
2022/01/16 16:48:49;;;;;;;27.80;12.07;;;;;;;2.07;85.11;99523.34;8300896;28;20108;-73
2022/01/16 16:52:51;;;;;;;34.45;13.40;;;;;;;2.04;85.82;99523.84;8282169;28;20073;-73
2022/01/16 16:56:54;;;;;;;37.67;14.77;;;;;;;1.99;86.36;99542.41;8300682;28;20053;-73
2022/01/16 17:00:55;;;;;;;24.17;10.55;;;;;;;1.90;86.98;99554.53;8282252;28;20057;-73
2022/01/16 17:04:56;;;;;;;23.60;12.05;;;;;;;1.90;87.37;99543.88;8299333;28;20489;-72
2022/01/16 17:08:57;;;;;;;33.05;14.77;;;;;;;1.97;87.07;99544.50;8300254;28;20071;-73
2022/01/16 17:12:59;;;;;;;35.63;16.52;;;;;;;1.76;88.07;99547.06;8299575;28;20049;-72
2022/01/16 17:17:00;;;;;;;32.17;14.02;;;;;;;1.72;88.55;99541.44;8299654;28;20052;-73
2022/01/16 17:21:01;;;;;;;105.80;41.67;;;;;;;1.72;89.05;99551.28;8295169;28;20050;-72
2022/01/16 17:25:05;;;;;;;35.38;16.30;;;;;;;1.84;88.52;99560.81;8296386;28;20046;-73
2022/01/16 17:29:06;;;;;;;34.42;15.10;;;;;;;1.78;88.93;99545.81;8296577;28;20074;-72
2022/01/16 17:33:07;;;;;;;34.78;14.82;;;;;;;1.71;89.58;99547.78;8295641;28;20417;-72
2022/01/16 17:37:09;;;;;;;33.53;15.90;;;;;;;1.70;89.72;99540.84;8263107;28;20456;-72
2022/01/16 17:41:12;;;;;;;39.25;16.15;;;;;;;1.63;90.02;99538.38;8310426;28;20042;-75
2022/01/16 17:45:15;;;;;;;40.13;15.52;;;;;;;1.66;90.55;99531.75;8310339;28;20095;-73
2022/01/16 17:49:16;;;;;;;38.33;16.20;;;;;;;1.62;90.70;99530.59;8296161;28;20413;-73
2022/01/16 17:53:17;;;;;;;41.95;16.35;;;;;;;1.67;90.80;99533.34;8298012;28;20077;-71
2022/01/16 17:57:18;;;;;;;48.15;16.45;;;;;;;1.64;91.54;99539.16;8297799;28;20054;-72
2022/01/16 18:01:23;;;;;;;42.60;16.63;;;;;;;1.61;91.51;99534.31;8297914;28;20140;-72
2022/01/16 18:05:24;;;;;;;45.88;16.75;;;;;;;1.62;92.01;99525.28;8247356;28;20046;-73
2022/01/16 18:09:25;;;;;;;41.42;17.02;;;;;;;1.70;91.62;99527.53;8297594;28;20045;-77
2022/01/16 18:13:28;;;;;;;48.05;19.63;;;;;;;1.67;92.11;99522.72;8294272;28;20129;-72
2022/01/16 18:17:29;;;;;;;56.72;20.02;;;;;;;1.64;91.98;99528.50;8297429;28;20073;-72
2022/01/16 18:21:30;;;;;;;37.92;15.48;;;;;;;1.67;92.83;99523.50;8297035;28;20052;-71
2022/01/16 18:25:31;;;;;;;44.97;18.83;;;;;;;1.62;93.32;99526.09;8295881;28;20137;-73
2022/01/16 18:29:32;;;;;;;43.28;19.23;;;;;;;1.63;92.98;99532.22;8279495;28;20042;-73
2022/01/16 18:33:33;;;;;;;50.53;19.58;;;;;;;1.62;93.10;99535.94;8294953;28;20509;-71
2022/01/16 18:37:36;;;;;;;49.70;18.77;;;;;;;1.72;92.68;99525.44;8298259;28;20045;-72
2022/01/16 18:41:38;;;;;;;45.20;18.80;;;;;;;1.60;93.12;99522.03;8292929;28;20054;-73
2022/01/16 18:46:01;;;;;;;42.65;16.05;;;;;;;1.63;93.54;99517.06;8209819;28;20138;-73
2022/01/16 18:50:11;;;;;;;52.85;18.58;;;;;;;1.68;92.80;99524.31;8227120;28;20498;-73
2022/01/16 18:54:13;;;;;;;51.25;19.98;;;;;;;1.65;92.82;99530.13;8195994;28;20163;-73
2022/01/16 18:58:14;;;;;;;45.72;17.95;;;;;;;1.74;92.16;99518.03;8179276;28;20141;-73
2022/01/16 19:02:15;;;;;;;49.38;21.27;;;;;;;1.62;92.33;99527.94;8226964;28;20042;-73
2022/01/16 19:06:18;;;;;;;65.55;24.00;;;;;;;1.63;92.48;99529.56;8224723;28;20505;-73
2022/01/16 19:10:19;;;;;;;52.28;23.58;;;;;;;1.59;93.18;99531.06;8256272;28;20512;-73
2022/01/16 19:14:20;;;;;;;55.55;23.90;;;;;;;1.63;92.59;99532.22;8294656;28;20054;-73
2022/01/16 19:18:23;;;;;;;35.00;13.23;;;;;;;1.67;92.87;99533.34;8292795;28;20054;-74
2022/01/16 19:22:24;;;;;;;50.28;21.15;;;;;;;1.57;93.13;99514.56;8294238;28;20153;-72
2022/01/16 19:26:25;;;;;;;57.25;24.30;;;;;;;1.56;93.08;99520.91;8295494;28;20050;-72
2022/01/16 19:30:29;;;;;;;52.15;20.80;;;;;;;1.54;93.56;99517.66;8296069;28;20050;-72